Time;durP1;ratioP1;P1;durP2;ratioP2;P2;SDS_P1;SDS_P2;PMS_P1;PMS_P2;Temp;Humidity;BMP_temperature;BMP_pressure;BME280_temperature;BME280_humidity;BME280_pressure;Samples;Min_cycle;Max_cycle;Signal;HPM_P1;HPM_P2
2022/02/11 00:01:47;;;;;;;18.00;5.72;;;;;;;8.27;100.00;98317.13;5002269;28;20119;-56
2022/02/11 00:09:18;;;;;;;16.10;5.07;;;;;;;8.15;100.00;98302.72;5003130;28;20018;-57
2022/02/11 00:11:44;;;;;;;15.70;5.18;;;;;;;7.94;100.00;98304.13;5002738;28;20426;-58
2022/02/11 00:14:09;;;;;;;17.10;5.65;;;;;;;7.81;100.00;98298.41;5006786;28;20625;-56
2022/02/11 00:16:38;;;;;;;16.85;5.55;;;;;;;7.95;100.00;98299.78;5003672;28;20034;-56
2022/02/11 00:19:04;;;;;;;16.65;5.50;;;;;;;8.30;100.00;98294.50;5003293;28;20040;-57
2022/02/11 00:21:30;;;;;;;14.00;4.75;;;;;;;8.14;100.00;98306.19;5005383;28;20041;-56
2022/02/11 00:23:56;;;;;;;14.45;4.95;;;;;;;7.97;100.00;98298.00;5003716;28;20848;-58
2022/02/11 00:26:28;;;;;;;17.15;5.70;;;;;;;7.65;100.00;98297.06;5002783;28;20603;-56
2022/02/11 00:34:29;;;;;;;16.70;5.57;;;;;;;7.75;100.00;98272.56;5002532;28;20126;-57
2022/02/11 00:37:08;;;;;;;18.55;5.80;;;;;;;7.79;100.00;98268.16;5002369;28;20659;-57
2022/02/11 00:40:10;;;;;;;19.13;6.05;;;;;;;7.93;100.00;98265.22;5005390;28;20531;-58
2022/02/11 01:03:59;;;;;;;18.63;5.90;;;;;;;7.16;100.00;98259.31;5004079;28;20060;-57
2022/02/11 01:06:27;;;;;;;18.52;5.93;;;;;;;7.02;100.00;98251.81;5002239;28;20173;-58
2022/02/11 01:08:52;;;;;;;21.17;6.13;;;;;;;7.14;100.00;98254.16;5004766;28;20061;-58
2022/02/11 01:11:25;;;;;;;17.95;5.70;;;;;;;7.26;100.00;98245.22;5005921;28;20175;-57
2022/02/11 01:13:51;;;;;;;19.00;6.10;;;;;;;7.52;100.00;98242.84;5005897;28;20388;-57
2022/02/11 01:16:22;;;;;;;17.58;5.90;;;;;;;7.39;100.00;98233.66;5007260;28;20044;-58
2022/02/11 01:18:56;;;;;;;18.13;6.10;;;;;;;7.49;100.00;98237.72;5008307;28;20124;-58
2022/02/11 01:21:31;;;;;;;19.33;6.15;;;;;;;7.46;100.00;98240.41;5008472;28;20072;-59
2022/02/11 01:24:52;;;;;;;13.65;5.50;;;;;;;7.46;100.00;98237.81;5008370;28;20025;-58
2022/02/11 01:55:22;;;;;;;18.52;5.97;;;;;;;7.98;100.00;98201.84;5008004;28;20017;-59
2022/02/11 02:17:04;;;;;;;18.45;5.97;;;;;;;7.52;100.00;98188.34;5007428;28;20088;-58
2022/02/11 03:34:45;;;;;;;16.25;5.43;;;;;;;7.37;100.00;98174.91;5004716;28;20033;-58
2022/02/11 04:52:44;;;;;;;15.57;5.70;;;;;;;8.63;100.00;98202.66;4979453;28;20045;-57
2022/02/11 04:55:28;;;;;;;16.05;5.22;;;;;;;8.85;100.00;98236.66;5003311;28;20077;-57
2022/02/11 05:00:39;;;;;;;15.38;5.45;;;;;;;8.79;100.00;98247.25;5002899;28;20130;-57
2022/02/11 05:03:05;;;;;;;13.63;5.13;;;;;;;10.58;100.00;98263.03;5006678;28;20048;-58
2022/02/11 05:05:48;;;;;;;14.93;4.65;;;;;;;9.79;100.00;98262.31;5003558;28;20120;-58
2022/02/11 05:08:17;;;;;;;13.75;4.95;;;;;;;10.39;100.00;98257.66;5004019;28;20037;-57
2022/02/11 05:10:43;;;;;;;10.23;3.65;;;;;;;11.66;100.00;98261.47;5003072;28;20703;-57
2022/02/11 05:13:09;;;;;;;10.68;4.30;;;;;;;10.17;100.00;98255.78;5003245;28;20029;-58
2022/02/11 05:15:34;;;;;;;11.70;5.18;;;;;;;9.64;100.00;98258.47;5001832;28;20061;-57
2022/02/11 05:18:01;;;;;;;13.15;5.38;;;;;;;9.06;100.00;98261.16;5005147;28;20030;-57
2022/02/11 05:20:26;;;;;;;8.80;3.25;;;;;;;10.96;100.00;98272.03;5002884;28;20042;-57
2022/02/11 05:22:52;;;;;;;11.20;4.30;;;;;;;10.67;100.00;98280.97;5003051;28;20018;-57
2022/02/11 05:25:17;;;;;;;10.23;4.40;;;;;;;9.23;100.00;98276.28;5004209;28;20034;-57
2022/02/11 05:27:42;;;;;;;11.25;3.72;;;;;;;11.64;100.00;98300.72;5004612;28;20017;-58
2022/02/11 05:30:08;;;;;;;12.68;4.75;;;;;;;7.82;100.00;98289.69;5003028;28;20097;-57
2022/02/11 05:32:34;;;;;;;11.10;3.40;;;;;;;11.63;100.00;98309.47;5006739;28;20022;-58
2022/02/11 05:34:59;;;;;;;11.57;3.78;;;;;;;9.62;100.00;98313.19;5003654;28;20022;-58
2022/02/11 05:37:25;;;;;;;10.27;3.83;;;;;;;8.94;100.00;98324.00;5005129;28;20140;-57
2022/02/11 05:39:50;;;;;;;10.02;3.45;;;;;;;9.20;100.00;98333.63;5005395;28;20025;-56
2022/02/11 05:42:15;;;;;;;9.00;3.00;;;;;;;10.60;100.00;98347.31;5004019;28;20046;-59
2022/02/11 05:44:41;;;;;;;9.82;3.22;;;;;;;11.40;100.00;98361.81;5004401;28;20037;-58
2022/02/11 05:47:06;;;;;;;13.27;3.08;;;;;;;10.01;100.00;98382.31;5003897;28;20045;-59
2022/02/11 05:49:32;;;;;;;7.82;2.50;;;;;;;8.94;100.00;98371.66;5002816;28;20116;-58
2022/02/11 05:51:57;;;;;;;7.78;2.60;;;;;;;7.20;100.00;98382.88;5000604;28;20136;-56
2022/02/11 05:54:22;;;;;;;11.43;3.08;;;;;;;6.90;100.00;98398.19;5003404;28;20100;-58
2022/02/11 05:56:48;;;;;;;8.68;2.72;;;;;;;7.19;100.00;98404.53;5004673;28;20045;-59
2022/02/11 05:59:13;;;;;;;8.82;2.67;;;;;;;6.46;100.00;98399.88;5004604;28;20021;-58
2022/02/11 06:01:38;;;;;;;9.82;3.00;;;;;;;7.74;100.00;98413.69;5006187;28;20047;-58
2022/02/11 06:04:04;;;;;;;7.97;2.45;;;;;;;5.65;100.00;98420.16;5009489;28;20161;-59
2022/02/11 06:06:29;;;;;;;8.23;2.40;;;;;;;7.80;100.00;98433.47;5010954;28;20034;-58
2022/02/11 06:08:54;;;;;;;9.07;2.70;;;;;;;7.05;100.00;98434.19;5009459;28;20042;-58
2022/02/11 06:11:20;;;;;;;8.93;2.83;;;;;;;6.71;100.00;98454.72;5012054;28;20045;-59
2022/02/11 06:13:46;;;;;;;9.20;2.72;;;;;;;8.58;100.00;98461.94;5010169;28;20018;-62
2022/02/11 06:16:12;;;;;;;8.23;2.80;;;;;;;8.74;100.00;98465.00;5009821;28;20136;-58
2022/02/11 06:18:37;;;;;;;8.18;2.67;;;;;;;11.97;100.00;98482.44;5010707;28;20164;-59
2022/02/11 06:21:03;;;;;;;9.52;2.97;;;;;;;9.35;100.00;98481.53;5008880;28;20038;-59
2022/02/11 06:23:31;;;;;;;8.20;2.55;;;;;;;8.16;100.00;98486.31;5008806;28;20073;-58
2022/02/11 06:25:56;;;;;;;9.18;2.88;;;;;;;6.98;100.00;98487.06;5009265;28;20034;-60
2022/02/11 06:28:22;;;;;;;8.30;2.50;;;;;;;5.70;100.00;98496.00;5010490;28;20029;-58
2022/02/11 06:30:47;;;;;;;8.40;2.50;;;;;;;5.83;100.00;98494.09;5010214;28;20042;-62
2022/02/11 06:33:12;;;;;;;8.27;2.30;;;;;;;4.80;100.00;98502.19;5009932;28;20026;-58
2022/02/11 06:35:41;;;;;;;8.93;2.45;;;;;;;5.14;100.00;98512.16;5009419;28;20030;-58
2022/02/11 06:38:07;;;;;;;8.93;2.28;;;;;;;4.61;100.00;98526.47;5011225;28;20029;-59
2022/02/11 06:40:33;;;;;;;10.45;2.55;;;;;;;4.67;100.00;98531.63;5008771;28;20038;-58
2022/02/11 06:42:58;;;;;;;11.90;2.65;;;;;;;4.54;100.00;98529.97;5010367;28;20046;-59
2022/02/11 06:45:25;;;;;;;11.10;2.60;;;;;;;4.40;100.00;98535.28;5008309;28;20331;-59
2022/02/11 06:47:51;;;;;;;10.52;2.30;;;;;;;4.42;100.00;98536.97;5009283;28;20100;-58
2022/02/11 06:50:16;;;;;;;11.00;2.58;;;;;;;4.31;100.00;98543.94;5009915;28;20034;-59
2022/02/11 06:52:42;;;;;;;12.80;2.78;;;;;;;4.58;100.00;98550.63;5008804;28;20521;-58
2022/02/11 06:55:08;;;;;;;11.93;2.58;;;;;;;4.18;100.00;98568.13;5008543;28;20164;-58
2022/02/11 06:57:34;;;;;;;15.80;3.40;;;;;;;4.43;100.00;98579.19;5011273;28;20476;-59
2022/02/11 07:00:01;;;;;;;13.55;3.28;;;;;;;4.41;100.00;98586.06;5011355;28;20068;-59
2022/02/11 07:02:29;;;;;;;21.58;3.35;;;;;;;5.29;100.00;98588.75;5008357;28;20037;-60
2022/02/11 07:04:55;;;;;;;17.58;4.32;;;;;;;4.72;100.00;98584.09;5007208;28;20034;-58
2022/02/11 07:07:20;;;;;;;17.35;3.85;;;;;;;6.89;100.00;98604.81;5006278;28;20037;-59
2022/02/11 07:09:48;;;;;;;10.82;3.55;;;;;;;6.41;100.00;98621.94;5012985;28;20043;-59
2022/02/11 07:12:13;;;;;;;15.27;3.70;;;;;;;9.97;100.00;98630.88;5007018;28;20049;-59
2022/02/11 07:14:38;;;;;;;10.88;3.53;;;;;;;5.75;100.00;98628.78;5008456;28;20037;-59
2022/02/11 07:17:04;;;;;;;11.70;3.80;;;;;;;6.26;100.00;98621.28;5008688;28;20052;-59
2022/02/11 07:19:30;;;;;;;12.82;3.58;;;;;;;6.26;100.00;98639.41;5010220;28;20386;-58
2022/02/11 07:22:00;;;;;;;13.55;3.75;;;;;;;7.02;100.00;98644.34;5009225;28;20041;-61
2022/02/11 07:24:26;;;;;;;11.65;3.67;;;;;;;6.01;100.00;98651.84;5009728;28;20026;-61
2022/02/11 07:26:51;;;;;;;13.48;3.67;;;;;;;6.73;100.00;98674.19;5008745;28;20041;-60
2022/02/11 07:29:17;;;;;;;9.35;2.72;;;;;;;5.43;100.00;98667.97;5007811;28;20036;-60
2022/02/11 07:31:42;;;;;;;12.68;3.40;;;;;;;6.40;100.00;98691.06;5008042;28;20041;-59
2022/02/11 07:34:07;;;;;;;11.75;3.92;;;;;;;8.09;100.00;98695.22;5009448;28;20041;-61
2022/02/11 07:36:33;;;;;;;16.10;4.00;;;;;;;8.65;100.00;98700.16;5008676;28;20037;-60
2022/02/11 07:39:00;;;;;;;11.48;3.65;;;;;;;6.89;100.00;98705.06;5009580;28;20806;-60
2022/02/11 07:41:25;;;;;;;9.20;3.17;;;;;;;5.86;100.00;98698.56;5008267;28;20120;-60
2022/02/11 07:43:51;;;;;;;11.82;3.55;;;;;;;8.70;100.00;98721.72;5009969;28;20113;-61
2022/02/11 07:46:16;;;;;;;9.98;3.42;;;;;;;8.53;100.00;98723.81;5009473;28;20116;-61
2022/02/11 07:48:41;;;;;;;11.40;3.00;;;;;;;6.55;100.00;98721.09;5008202;28;20026;-61
2022/02/11 07:51:07;;;;;;;9.23;3.25;;;;;;;5.24;100.00;98724.16;5009053;28;20164;-60
2022/02/11 07:53:35;;;;;;;10.98;3.63;;;;;;;5.97;100.00;98741.66;5008769;28;20033;-60
2022/02/11 07:56:01;;;;;;;15.95;4.05;;;;;;;6.08;100.00;98741.50;5008858;28;20037;-60
2022/02/11 07:58:27;;;;;;;10.65;3.80;;;;;;;7.29;100.00;98761.53;5008242;28;20447;-60
2022/02/11 08:00:53;;;;;;;12.20;3.83;;;;;;;5.35;100.00;98751.69;5008119;28;20579;-60
2022/02/11 08:03:18;;;;;;;10.75;3.10;;;;;;;5.98;100.00;98752.88;5008986;28;20029;-61
2022/02/11 08:05:45;;;;;;;13.00;3.63;;;;;;;7.05;100.00;98758.44;5007947;28;20068;-60
2022/02/11 08:08:10;;;;;;;10.88;4.15;;;;;;;6.94;100.00;98773.28;5008555;28;20024;-58
2022/02/11 08:10:36;;;;;;;13.77;4.00;;;;;;;7.06;100.00;98767.94;5008673;28;20038;-62
2022/02/11 08:13:01;;;;;;;11.02;3.60;;;;;;;6.36;100.00;98767.97;5008836;28;20053;-60
2022/02/11 08:15:26;;;;;;;9.85;3.45;;;;;;;6.65;100.00;98774.53;5006845;28;20496;-60
2022/02/11 08:17:52;;;;;;;11.23;3.63;;;;;;;7.25;100.00;98785.81;5009162;28;20026;-61
2022/02/11 08:20:18;;;;;;;12.23;3.53;;;;;;;8.40;100.00;98790.75;5009376;28;20037;-60
2022/02/11 08:22:43;;;;;;;10.73;3.85;;;;;;;6.68;100.00;98789.19;5008299;28;20399;-62
2022/02/11 08:25:08;;;;;;;11.07;3.85;;;;;;;6.72;100.00;98796.91;5007407;28;20021;-60
2022/02/11 08:27:34;;;;;;;10.85;4.07;;;;;;;6.65;100.00;98789.22;5007407;28;20017;-59
2022/02/11 08:29:59;;;;;;;12.45;4.25;;;;;;;6.70;100.00;98798.66;5007828;28;20030;-61
2022/02/11 08:32:25;;;;;;;14.75;4.30;;;;;;;6.74;100.00;98800.34;5008875;28;20124;-61
2022/02/11 08:34:50;;;;;;;13.93;4.00;;;;;;;9.34;100.00;98812.25;5008661;28;20838;-61
2022/02/11 08:37:16;;;;;;;16.60;4.50;;;;;;;6.87;100.00;98800.19;5006584;28;20052;-60
2022/02/11 08:39:42;;;;;;;14.48;4.47;;;;;;;8.35;100.00;98824.66;5010177;28;20040;-61
2022/02/11 08:42:07;;;;;;;10.27;3.83;;;;;;;7.68;100.00;98821.47;5007078;28;20037;-61
2022/02/11 08:44:34;;;;;;;9.85;3.28;;;;;;;8.72;100.00;98833.53;5008676;28;20645;-60
2022/02/11 08:47:00;;;;;;;11.90;3.60;;;;;;;7.66;100.00;98820.66;5007372;28;20042;-61
2022/02/11 08:49:25;;;;;;;13.15;3.70;;;;;;;7.79;100.00;98824.75;5007656;28;20033;-61
2022/02/11 08:51:51;;;;;;;13.13;4.47;;;;;;;7.04;100.00;98824.19;5006518;28;20566;-60
2022/02/11 08:54:16;;;;;;;12.05;4.28;;;;;;;6.88;100.00;98822.66;5008551;28;20030;-59
2022/02/11 08:56:41;;;;;;;9.15;3.10;;;;;;;9.00;100.00;98839.84;5007939;28;20046;-60
2022/02/11 08:59:07;;;;;;;10.25;4.07;;;;;;;7.72;100.00;98841.34;5007565;28;20026;-60
2022/02/11 09:01:33;;;;;;;13.88;4.38;;;;;;;6.53;100.00;98827.38;5006472;28;20026;-60
2022/02/11 09:03:58;;;;;;;10.90;4.05;;;;;;;7.02;100.00;98841.50;5007489;28;20064;-60
2022/02/11 09:06:24;;;;;;;11.90;4.03;;;;;;;8.19;100.00;98847.47;5006542;28;20064;-60
2022/02/11 09:08:50;;;;;;;11.90;4.03;;;;;;;8.78;100.00;98843.78;5007748;28;20128;-60
2022/02/11 09:11:19;;;;;;;11.27;3.58;;;;;;;10.49;100.00;98858.91;5008854;28;20139;-60
2022/02/11 09:13:49;;;;;;;8.80;2.90;;;;;;;11.32;100.00;98859.16;5008611;28;20022;-60
2022/02/11 09:16:14;;;;;;;10.98;3.78;;;;;;;10.27;100.00;98852.53;5006496;28;20107;-60
2022/02/11 09:18:40;;;;;;;10.30;3.95;;;;;;;9.84;100.00;98854.47;5006249;28;20092;-59
2022/02/11 09:21:08;;;;;;;8.15;2.80;;;;;;;10.90;100.00;98869.09;5006533;28;20045;-61
2022/02/11 09:23:34;;;;;;;9.95;3.28;;;;;;;11.33;100.00;98867.84;5007465;28;20025;-60
2022/02/11 09:26:00;;;;;;;12.77;3.47;;;;;;;12.12;100.00;98880.19;5015917;28;20037;-61
2022/02/11 09:28:26;;;;;;;10.25;4.07;;;;;;;10.03;100.00;98860.94;5007735;28;20028;-61
2022/02/11 09:30:51;;;;;;;8.43;3.15;;;;;;;9.72;100.00;98866.00;5006886;28;20106;-60
2022/02/11 09:33:16;;;;;;;8.75;3.40;;;;;;;10.83;100.00;98871.03;5009993;28;20412;-60
2022/02/11 09:35:42;;;;;;;9.40;3.60;;;;;;;11.03;100.00;98869.59;5011432;28;20538;-62
2022/02/11 09:38:09;;;;;;;7.82;2.88;;;;;;;11.83;100.00;98870.63;5012093;28;20112;-61
2022/02/11 09:40:39;;;;;;;8.05;3.08;;;;;;;11.74;100.00;98882.25;5011194;28;20702;-60
2022/02/11 09:43:08;;;;;;;8.40;2.55;;;;;;;11.43;100.00;98887.56;5010595;28;20018;-60
2022/02/11 09:45:34;;;;;;;11.07;3.63;;;;;;;10.23;100.00;98899.53;5010275;28;20038;-60
2022/02/11 09:47:59;;;;;;;8.93;3.47;;;;;;;9.64;100.00;98888.81;5008841;28;20469;-57
2022/02/11 09:50:25;;;;;;;9.65;3.25;;;;;;;11.58;100.00;98913.22;5009557;28;20507;-58
2022/02/11 09:52:53;;;;;;;9.23;3.20;;;;;;;9.62;100.00;98901.00;5013568;28;20036;-59
2022/02/11 09:55:37;;;;;;;8.02;3.40;;;;;;;10.18;100.00;98913.56;5010636;28;20026;-58
2022/02/11 09:58:29;;;;;;;8.25;2.67;;;;;;;11.30;100.00;98905.38;5011441;28;20036;-58
2022/02/11 10:00:55;;;;;;;8.60;3.13;;;;;;;11.18;100.00;98905.72;5007489;28;20046;-59
2022/02/11 10:03:21;;;;;;;9.82;3.40;;;;;;;10.49;100.00;98915.44;5010308;28;20032;-60
2022/02/11 10:05:49;;;;;;;9.23;3.53;;;;;;;9.41;100.00;98923.16;5009220;28;20128;-59
2022/02/11 10:08:16;;;;;;;10.85;3.40;;;;;;;9.75;100.00;98930.25;5010216;28;20582;-58
2022/02/11 10:10:44;;;;;;;9.38;3.30;;;;;;;9.69;100.00;98939.06;5009008;28;20530;-57
2022/02/11 10:13:14;;;;;;;8.25;3.10;;;;;;;10.32;100.00;98944.56;5010997;28;20029;-58
2022/02/11 10:15:43;;;;;;;8.00;3.15;;;;;;;11.57;100.00;98934.19;5010222;28;20065;-57
2022/02/11 10:18:11;;;;;;;9.93;3.38;;;;;;;9.97;100.00;98943.63;5010107;28;20744;-58
2022/02/11 10:20:42;;;;;;;10.57;3.60;;;;;;;9.92;100.00;98945.47;5007930;28;20041;-59
2022/02/11 10:23:24;;;;;;;14.45;3.97;;;;;;;7.93;100.00;98946.66;5012473;28;20110;-58
2022/02/11 10:26:10;;;;;;;10.25;3.25;;;;;;;10.74;100.00;98958.25;5010320;28;20076;-58
2022/02/11 10:28:40;;;;;;;9.68;3.30;;;;;;;10.40;100.00;98953.03;5010763;28;20182;-60
2022/02/11 10:31:29;;;;;;;10.15;3.10;;;;;;;10.08;100.00;98957.25;5009486;28;20069;-60
2022/02/11 10:34:05;;;;;;;12.40;3.47;;;;;;;9.18;100.00;98952.28;5009031;28;20565;-60
2022/02/11 10:36:40;;;;;;;10.20;3.40;;;;;;;8.90;100.00;98963.25;5010283;28;20045;-59
2022/02/11 10:39:19;;;;;;;8.00;2.70;;;;;;;11.10;100.00;98972.97;5010572;28;20045;-58
2022/02/11 10:41:58;;;;;;;10.98;3.22;;;;;;;10.63;100.00;98967.28;5010634;28;20049;-57
2022/02/11 10:44:24;;;;;;;9.52;3.15;;;;;;;9.66;100.00;98965.16;5009428;28;20055;-58
2022/02/11 10:46:51;;;;;;;9.65;2.80;;;;;;;10.82;100.00;98978.94;5007754;28;20568;-58
2022/02/11 10:49:18;;;;;;;8.93;3.17;;;;;;;9.39;100.00;98967.47;5010369;28;20412;-58
2022/02/11 10:51:49;;;;;;;11.32;3.80;;;;;;;9.62;100.00;98969.59;5010518;28;20125;-58
2022/02/11 10:54:23;;;;;;;9.48;3.15;;;;;;;9.79;100.00;98966.59;5009286;28;20033;-59
2022/02/11 10:56:54;;;;;;;9.25;3.50;;;;;;;9.22;100.00;98961.75;5010156;28;20060;-59
2022/02/11 10:59:25;;;;;;;13.30;5.60;;;;;;;8.59;100.00;98966.41;5009972;28;20029;-60
2022/02/11 11:01:51;;;;;;;11.10;3.55;;;;;;;8.97;100.00;98974.38;5009608;28;20045;-59
2022/02/11 11:04:17;;;;;;;8.18;3.20;;;;;;;9.61;100.00;98969.59;5008842;28;20025;-58
2022/02/11 11:06:44;;;;;;;8.05;2.33;;;;;;;11.15;100.00;98978.91;5009514;28;20939;-59
2022/02/11 11:09:10;;;;;;;13.23;3.05;;;;;;;10.65;100.00;98973.31;5008779;28;20117;-59
2022/02/11 11:11:36;;;;;;;8.90;2.67;;;;;;;10.48;100.00;98961.53;5011032;28;20125;-60
2022/02/11 11:14:04;;;;;;;7.55;2.60;;;;;;;11.90;100.00;98968.06;5009333;28;20426;-60
2022/02/11 11:16:34;;;;;;;9.52;3.22;;;;;;;9.72;100.00;98975.44;5007152;28;20774;-58
2022/02/11 11:19:00;;;;;;;9.27;3.05;;;;;;;9.37;100.00;98969.22;5007722;28;20695;-57
2022/02/11 11:21:26;;;;;;;10.52;3.53;;;;;;;8.87;100.00;98984.09;5008803;28;20052;-59
2022/02/11 11:23:56;;;;;;;11.55;3.05;;;;;;;10.20;100.00;98977.84;5009503;28;20037;-58
2022/02/11 11:26:55;;;;;;;8.52;3.00;;;;;;;11.84;100.00;98983.91;5009184;28;20037;-59
2022/02/11 11:29:20;;;;;;;8.80;2.88;;;;;;;12.27;100.00;98987.81;4972583;28;20030;-58
2022/02/11 11:31:57;;;;;;;7.75;2.63;;;;;;;12.18;100.00;98986.34;5009316;28;20041;-59
2022/02/11 11:34:24;;;;;;;11.35;3.47;;;;;;;11.91;100.00;98975.88;5007772;28;20033;-59
2022/02/11 11:36:55;;;;;;;10.93;3.50;;;;;;;10.40;100.00;98968.69;5007419;28;20041;-58
2022/02/11 11:39:20;;;;;;;10.20;3.38;;;;;;;9.29;100.00;98968.56;5008025;28;20046;-58
2022/02/11 11:41:58;;;;;;;8.00;2.80;;;;;;;11.49;100.00;98983.22;5007604;28;20115;-59
2022/02/11 11:44:24;;;;;;;8.85;2.88;;;;;;;10.20;100.00;98972.63;5008479;28;20021;-58
2022/02/11 11:46:58;;;;;;;9.52;2.70;;;;;;;13.16;100.00;98987.44;5008912;28;20041;-59
2022/02/11 11:49:26;;;;;;;8.38;2.55;;;;;;;13.22;100.00;98979.34;5007171;28;20127;-59
2022/02/11 11:51:54;;;;;;;10.00;2.75;;;;;;;10.56;100.00;98971.78;5008835;28;20645;-59
2022/02/11 11:54:24;;;;;;;9.43;3.10;;;;;;;9.98;100.00;98981.81;5007780;28;20030;-58
2022/02/11 11:56:52;;;;;;;9.75;2.95;;;;;;;11.07;100.00;98967.84;5008485;28;20045;-60
2022/02/11 11:59:20;;;;;;;7.68;2.78;;;;;;;11.92;100.00;98988.03;5010065;28;20034;-58
2022/02/11 12:01:59;;;;;;;9.60;3.35;;;;;;;12.30;100.00;98999.03;5008202;28;20122;-59
2022/02/11 12:04:28;;;;;;;6.18;2.35;;;;;;;14.68;100.00;98980.72;5008401;28;20032;-57
2022/02/11 12:07:02;;;;;;;6.80;2.65;;;;;;;13.52;100.00;98991.41;5006577;28;20104;-58
2022/02/11 12:09:28;;;;;;;7.68;2.75;;;;;;;13.53;100.00;98994.00;5010050;28;20039;-57
2022/02/11 12:11:57;;;;;;;7.68;2.47;;;;;;;11.25;100.00;98996.06;5006677;28;20037;-58
2022/02/11 12:14:25;;;;;;;7.55;2.45;;;;;;;11.92;100.00;98998.47;5008640;28;20029;-58
2022/02/11 12:16:51;;;;;;;10.52;3.70;;;;;;;11.64;100.00;98990.59;5007278;28;20124;-58
2022/02/11 12:19:17;;;;;;;9.10;3.13;;;;;;;11.80;100.00;98997.97;5005925;28;20030;-59
2022/02/11 12:21:42;;;;;;;9.63;4.18;;;;;;;9.54;100.00;99004.50;5008350;28;20034;-60
2022/02/11 12:29:36;;;;;;;6.47;2.38;;;;;;;11.68;100.00;99005.28;5007705;28;20040;-59
2022/02/11 12:32:03;;;;;;;8.55;3.17;;;;;;;10.59;100.00;99003.88;5006155;28;20813;-57
2022/02/11 12:34:28;;;;;;;9.98;3.50;;;;;;;11.66;100.00;99001.00;5009412;28;20079;-60
2022/02/11 12:36:59;;;;;;;8.40;2.42;;;;;;;12.86;100.00;98998.06;5008737;28;20049;-60
2022/02/11 12:39:24;;;;;;;8.05;2.50;;;;;;;13.04;100.00;98990.47;5006883;28;20025;-59
2022/02/11 12:41:51;;;;;;;8.85;3.00;;;;;;;12.46;100.00;98980.22;5006751;28;20041;-59
2022/02/11 12:44:28;;;;;;;6.88;2.58;;;;;;;12.03;100.00;98995.53;5007756;28;20073;-57
2022/02/11 12:46:55;;;;;;;8.77;2.90;;;;;;;11.00;100.00;98978.44;5006354;28;20033;-58
2022/02/11 12:49:21;;;;;;;8.35;3.20;;;;;;;10.61;100.00;98983.81;5008630;28;20041;-57
2022/02/11 12:51:55;;;;;;;7.43;2.50;;;;;;;13.44;100.00;98989.94;5005873;28;20029;-58
2022/02/11 12:54:21;;;;;;;7.82;2.55;;;;;;;13.03;100.00;98973.91;5007868;28;20033;-58
2022/02/11 12:56:47;;;;;;;8.80;2.90;;;;;;;10.20;100.00;98972.63;5006418;28;20046;-59
2022/02/11 12:59:13;;;;;;;9.02;2.88;;;;;;;12.90;100.00;98988.34;5007615;28;20026;-58
2022/02/11 13:01:38;;;;;;;7.10;2.25;;;;;;;11.57;100.00;98981.22;5009506;28;20053;-59
2022/02/11 13:04:04;;;;;;;7.65;2.70;;;;;;;10.80;100.00;98978.13;5006621;28;20138;-58
2022/02/11 13:06:37;;;;;;;9.10;3.00;;;;;;;13.86;100.00;98980.50;5005022;28;20041;-58
2022/02/11 13:09:04;;;;;;;7.88;2.75;;;;;;;11.65;100.00;98981.84;5007791;28;20120;-59
2022/02/11 13:11:31;;;;;;;7.65;2.58;;;;;;;10.05;100.00;98978.19;5009774;28;20038;-58
2022/02/11 13:14:06;;;;;;;6.68;2.53;;;;;;;13.16;100.00;98986.56;5012509;28;20056;-57
2022/02/11 13:16:38;;;;;;;7.20;2.40;;;;;;;13.16;100.00;98994.41;5007856;28;20469;-59
2022/02/11 13:19:15;;;;;;;8.25;2.65;;;;;;;12.41;100.00;98988.25;5011127;28;20399;-60
2022/02/11 13:21:41;;;;;;;9.60;3.38;;;;;;;9.90;100.00;98983.75;5011095;28;20175;-60
2022/02/11 13:24:07;;;;;;;10.15;3.40;;;;;;;10.60;100.00;98997.78;5012704;28;20026;-59
2022/02/11 13:26:33;;;;;;;7.78;3.00;;;;;;;11.61;100.00;98998.50;5010561;28;20033;-59
2022/02/11 13:28:59;;;;;;;9.80;3.20;;;;;;;10.10;100.00;98985.91;5013440;28;20031;-58
2022/02/11 13:31:24;;;;;;;6.95;2.40;;;;;;;12.28;100.00;98995.63;5010303;28;20041;-59
2022/02/11 13:34:05;;;;;;;8.32;3.00;;;;;;;11.41;100.00;98996.47;5012322;28;20029;-60
2022/02/11 13:36:30;;;;;;;8.13;2.85;;;;;;;11.25;100.00;98990.84;5010296;28;20041;-59
2022/02/11 13:39:02;;;;;;;9.13;2.97;;;;;;;10.61;100.00;99002.06;5009586;28;20532;-58
2022/02/11 13:41:32;;;;;;;11.48;3.33;;;;;;;11.40;100.00;98993.91;5010101;28;20037;-58
2022/02/11 13:44:06;;;;;;;8.30;2.90;;;;;;;13.66;100.00;99010.97;5010462;28;20104;-58
2022/02/11 13:46:37;;;;;;;8.40;3.13;;;;;;;10.32;100.00;99001.94;5008383;28;20573;-59
2022/02/11 13:49:09;;;;;;;7.88;2.90;;;;;;;9.42;100.00;99003.84;5009651;28;20037;-59
2022/02/11 13:51:37;;;;;;;9.55;3.05;;;;;;;11.77;100.00;99020.69;5010120;28;20089;-59
2022/02/11 13:54:14;;;;;;;10.05;3.13;;;;;;;10.88;100.00;99004.88;5011256;28;20109;-60
2022/02/11 13:56:47;;;;;;;8.60;2.78;;;;;;;11.50;100.00;99011.88;5010296;28;20148;-59
2022/02/11 13:59:23;;;;;;;9.07;3.25;;;;;;;12.83;100.00;99024.38;5010079;28;20065;-59
2022/02/11 14:01:49;;;;;;;10.50;3.40;;;;;;;11.09;100.00;99031.31;5009403;28;20790;-59
2022/02/11 14:04:18;;;;;;;10.05;3.03;;;;;;;11.99;100.00;99033.16;5011960;28;20395;-59
2022/02/11 14:06:53;;;;;;;8.13;2.97;;;;;;;9.91;100.00;99032.41;5009979;28;20156;-57
2022/02/11 14:09:38;;;;;;;9.35;3.17;;;;;;;13.93;100.00;99050.19;5010346;28;20042;-59
2022/02/11 14:12:05;;;;;;;8.80;2.70;;;;;;;11.21;100.00;99036.19;5008498;28;20103;-59
2022/02/11 14:14:34;;;;;;;7.78;2.58;;;;;;;10.85;100.00;99033.66;5010174;28;20055;-57
2022/02/11 14:17:04;;;;;;;8.45;2.70;;;;;;;12.01;100.00;99044.41;5008364;28;20531;-60
2022/02/11 14:19:30;;;;;;;9.15;2.85;;;;;;;9.77;100.00;99036.13;5010695;28;20044;-58
2022/02/11 14:21:57;;;;;;;7.20;2.47;;;;;;;11.28;100.00;99037.75;5009301;28;20423;-59
2022/02/11 14:24:24;;;;;;;7.82;2.58;;;;;;;10.99;100.00;99036.78;5008153;28;20056;-58
2022/02/11 14:26:50;;;;;;;8.45;2.63;;;;;;;11.17;100.00;99050.22;5008875;28;20038;-59
2022/02/11 14:29:16;;;;;;;8.40;2.55;;;;;;;11.11;100.00;99048.66;5009657;28;20028;-59
2022/02/11 14:31:42;;;;;;;6.70;2.40;;;;;;;11.95;100.00;99049.84;5008053;28;20034;-58
2022/02/11 14:34:12;;;;;;;10.25;3.13;;;;;;;11.99;100.00;99055.84;5008906;28;20133;-59
2022/02/11 14:36:39;;;;;;;7.65;2.70;;;;;;;9.58;100.00;99053.91;5009711;28;20999;-58
2022/02/11 14:39:17;;;;;;;11.35;3.50;;;;;;;10.07;100.00;99065.03;5009638;28;20022;-60
2022/02/11 14:41:47;;;;;;;7.07;2.42;;;;;;;10.46;100.00;99072.91;5009253;28;20155;-59
2022/02/11 14:44:26;;;;;;;9.60;3.00;;;;;;;11.31;100.00;99069.00;5012102;28;20021;-59
2022/02/11 14:46:54;;;;;;;8.57;2.65;;;;;;;10.72;100.00;99079.25;5007947;28;20674;-58
2022/02/11 14:49:20;;;;;;;8.20;2.60;;;;;;;11.75;100.00;99080.00;5010301;28;20454;-60
2022/02/11 14:51:49;;;;;;;9.93;3.03;;;;;;;11.25;100.00;99073.53;5008077;28;20547;-58
2022/02/11 14:54:16;;;;;;;10.80;3.35;;;;;;;10.66;100.00;99071.53;5008703;28;20113;-60
2022/02/11 14:56:43;;;;;;;10.02;3.20;;;;;;;8.62;100.00;99072.97;5008705;28;20046;-59
2022/02/11 14:59:08;;;;;;;7.32;2.30;;;;;;;11.17;100.00;99089.41;5010274;28;20474;-57
2022/02/11 15:01:44;;;;;;;8.80;2.75;;;;;;;10.86;100.00;99087.56;5008410;28;20547;-58
2022/02/11 15:04:10;;;;;;;10.60;3.13;;;;;;;8.56;100.00;99083.47;5008604;28;20045;-59
2022/02/11 15:06:37;;;;;;;12.38;3.78;;;;;;;9.43;100.00;99083.72;5008948;28;20053;-58
2022/02/11 15:09:04;;;;;;;13.60;3.75;;;;;;;8.92;100.00;99091.56;5009693;28;20029;-57
2022/02/11 15:11:29;;;;;;;12.98;4.78;;;;;;;12.04;100.00;99104.47;5007811;28;20046;-59
2022/02/11 15:13:55;;;;;;;10.73;3.72;;;;;;;11.32;100.00;99091.63;5008650;28;20037;-58
2022/02/11 15:16:21;;;;;;;12.73;3.20;;;;;;;12.26;100.00;99104.69;5009355;28;20063;-58
2022/02/11 15:18:47;;;;;;;10.77;3.50;;;;;;;11.28;100.00;99089.97;5009003;28;20456;-59
2022/02/11 15:21:14;;;;;;;11.20;3.20;;;;;;;11.26;100.00;99091.78;5008993;28;20036;-59
2022/02/11 15:23:40;;;;;;;11.35;3.42;;;;;;;9.81;100.00;99095.13;5011537;28;20140;-58
2022/02/11 15:26:08;;;;;;;9.02;2.95;;;;;;;10.11;100.00;99097.97;5008967;28;20639;-59
2022/02/11 15:28:36;;;;;;;11.38;3.25;;;;;;;8.78;100.00;99088.31;5008635;28;20037;-58
2022/02/11 15:31:02;;;;;;;12.13;2.95;;;;;;;12.03;100.00;99105.38;5006375;28;20034;-58